ADDS METAR Data INFO
IDs: Format: Raw Decoded Include TAF

Data at: 1313 UTC 19 Jul 2018

K3K3 191255Z AUTO 00000KT 5SM BR CLR 21/20 A2999 RMK AO2
K3K3 191235Z AUTO 00000KT 2 1/2SM BR CLR 19/18 A2999 RMK AO2
K3K3 191215Z AUTO 00000KT 3SM BR CLR 19/18 A2999 RMK AO2
K3K3 191155Z AUTO 00000KT 4SM BR CLR 18/18 A2999 RMK AO2
K3K3 191135Z AUTO 14004KT 5SM BR CLR 18/18 A2999 RMK AO2
K3K3 191115Z AUTO 12004KT 7SM CLR 19/18 A2999 RMK AO2
K3K3 191055Z AUTO 11004KT 7SM CLR 19/18 A2999 RMK AO2
K3K3 191035Z AUTO 13003KT 10SM CLR 20/18 A2999 RMK AO2
K3K3 191015Z AUTO 00000KT 10SM CLR 20/18 A2999 RMK AO2
K3K3 190955Z AUTO 00000KT 10SM CLR 20/18 A2999 RMK AO2
K3K3 190935Z AUTO 16003KT 10SM CLR 21/20 A2999 RMK AO2
K3K3 190915Z AUTO 17004KT 10SM CLR 21/20 A3000 RMK AO2
K3K3 190855Z AUTO 16005KT 10SM CLR 21/20 A2999 RMK AO2
K3K3 190835Z AUTO 17004KT 10SM CLR 22/20 A3000 RMK AO2
K3K3 190815Z AUTO 16006KT 10SM CLR 22/20 A3000 RMK AO2
K3K3 190755Z AUTO 16005KT 10SM CLR 22/20 A3000 RMK AO2
K3K3 190735Z AUTO 16006KT 10SM CLR 22/20 A3000 RMK AO2
K3K3 190715Z AUTO 16007KT 10SM CLR 23/20 A3000 RMK AO2
K3K3 190655Z AUTO 15005KT 10SM CLR 22/20 A3000 RMK AO2
K3K3 190635Z AUTO 15007KT 10SM CLR 23/20 A3000 RMK AO2
K3K3 190615Z AUTO 13008KT 10SM CLR 23/20 A3000 RMK AO2
K3K3 190555Z AUTO 15008KT 10SM CLR 23/20 A3000 RMK AO2
K3K3 190535Z AUTO 14008KT 10SM CLR 24/20 A3000 RMK AO2
K3K3 190515Z AUTO 15010KT 10SM CLR 25/20 A3000 RMK AO2
K3K3 190455Z AUTO 15008KT 10SM CLR 25/20 A3000 RMK AO2
K3K3 190435Z AUTO 14008KT 10SM CLR 26/19 A3000 RMK AO2
K3K3 190415Z AUTO 15008KT 10SM CLR 25/19 A3000 RMK AO2
K3K3 190355Z AUTO 15008KT 10SM CLR 26/19 A3000 RMK AO2
K3K3 190335Z AUTO 14006KT 10SM CLR 26/19 A2999 RMK AO2
K3K3 190315Z AUTO 15006KT 10SM CLR 26/19 A2998 RMK AO2
K3K3 190255Z AUTO 14006KT 10SM CLR 26/20 A2998 RMK AO2
K3K3 190235Z AUTO 15005KT 10SM CLR 27/19 A2997 RMK AO2
K3K3 190215Z AUTO 16005KT 10SM CLR 28/18 A2997 RMK AO2
K3K3 190155Z AUTO 14005KT 10SM CLR 29/17 A2996 RMK AO2
K3K3 190135Z AUTO 16004KT 10SM CLR 30/17 A2996 RMK AO2
K3K3 190115Z AUTO 16006KT 10SM CLR 31/17 A2996 RMK AO2
K3K3 190055Z AUTO 14008KT 10SM CLR 32/17 A2996 RMK AO2
K3K3 190035Z AUTO 15006KT 10SM CLR 32/17 A2996 RMK AO2
K3K3 190015Z AUTO 16008KT 10SM CLR 32/17 A2997 RMK AO2
K3K3 182355Z AUTO 16006KT 10SM CLR 33/17 A2997 RMK AO2
K3K3 182335Z AUTO 15006KT 10SM CLR 33/18 A2998 RMK AO2
K3K3 182315Z AUTO 16004KT 10SM CLR 33/17 A2999 RMK AO2
K3K3 182255Z AUTO 15003KT 10SM CLR 33/17 A2999 RMK AO2
K3K3 182235Z AUTO 16004KT 10SM CLR 33/18 A3000 RMK AO2
K3K3 182215Z AUTO 00000KT 10SM CLR 33/18 A3000 RMK AO2
K3K3 182155Z AUTO 26004KT 10SM CLR 32/19 A3001 RMK AO2
K3K3 182135Z AUTO 00000KT 10SM CLR 32/18 A3001 RMK AO2
K3K3 182115Z AUTO 23008KT 10SM CLR 32/19 A3001 RMK AO2
K3K3 182055Z AUTO 18007KT 10SM CLR 32/19 A3002 RMK AO2
K3K3 182035Z AUTO 00000KT 10SM CLR 31/18 A3003 RMK AO2
K3K3 182015Z AUTO 00000KT 10SM CLR 31/19 A3003 RMK AO2
K3K3 181955Z AUTO 15005KT 10SM CLR 31/18 A3004 RMK AO2
K3K3 181935Z AUTO 00000KT 10SM CLR 30/18 A3004 RMK AO2
K3K3 181915Z AUTO 20004KT 10SM CLR 30/19 A3004 RMK AO2
K3K3 181855Z AUTO 16005KT 10SM CLR 29/20 A3005 RMK AO2
K3K3 181835Z AUTO 15005KT 10SM CLR 29/19 A3006 RMK AO2
K3K3 181815Z AUTO 11003KT 10SM CLR 28/20 A3006 RMK AO2
K3K3 181755Z AUTO 11004KT 10SM CLR 28/20 A3007 RMK AO2
K3K3 181735Z AUTO 00000KT 10SM CLR 28/19 A3007 RMK AO2
K3K3 181715Z AUTO 15004KT 10SM CLR 27/19 A3008 RMK AO2
K3K3 181655Z AUTO 14007KT 110V170 10SM CLR 27/20 A3008 RMK AO2
K3K3 181635Z AUTO 00000KT 10SM CLR 26/18 A3008 RMK AO2
K3K3 181615Z AUTO 00000KT 10SM SCT028 26/18 A3009 RMK AO2
K3K3 181555Z AUTO 00000KT 10SM BKN028 25/18 A3010 RMK AO2
K3K3 181535Z AUTO 32004KT 10SM SCT024 25/18 A3010 RMK AO2
K3K3 181515Z AUTO 05004KT 10SM CLR 25/18 A3010 RMK AO2
K3K3 181455Z AUTO 01006KT 10SM CLR 23/18 A3011 RMK AO2
K3K3 181435Z AUTO 03003KT 10SM CLR 23/18 A3010 RMK AO2
K3K3 181415Z AUTO 00000KT 10SM CLR 22/19 A3009 RMK AO2
K3K3 181355Z AUTO 00000KT 10SM CLR 22/18 A3008 RMK AO2
K3K3 181335Z AUTO 00000KT 10SM CLR 21/19 A3008 RMK AO2
K3K3 181315Z AUTO 00000KT 10SM CLR 20/19 A3009 RMK AO2
K3K3 181255Z AUTO 18003KT 10SM CLR 20/18 A3009 RMK AO2
K3K3 181235Z AUTO 00000KT 10SM CLR 18/18 A3010 RMK AO2
K3K3 181215Z AUTO 00000KT 7SM CLR 17/17 A3009 RMK AO2
K3K3 181155Z AUTO 35003KT 5SM BR CLR 17/17 A3009 RMK AO2
K3K3 181135Z AUTO 01004KT 7SM CLR 17/17 A3008 RMK AO2
K3K3 181115Z AUTO 02003KT 7SM CLR 17/17 A3007 RMK AO2
K3K3 181055Z AUTO 00000KT 10SM CLR 18/17 A3007 RMK AO2
K3K3 181035Z AUTO 01004KT 10SM CLR 18/17 A3006 RMK AO2
K3K3 181015Z AUTO 03010KT 10SM CLR 18/17 A3006 RMK AO2
K3K3 180955Z AUTO 04009KT 10SM CLR 18/17 A3007 RMK AO2
K3K3 180935Z AUTO 24004KT 10SM CLR 19/18 A3005 RMK AO2
K3K3 180915Z AUTO 22006KT 10SM CLR 19/18 A3006 RMK AO2
K3K3 180855Z AUTO 21006KT 10SM CLR 20/18 A3006 RMK AO2
K3K3 180835Z AUTO 19006KT 10SM CLR 20/18 A3006 RMK AO2
K3K3 180815Z AUTO 18007KT 10SM CLR 20/18 A3008 RMK AO2
K3K3 180755Z AUTO 17009KT 10SM SCT110 20/19 A3008 RMK AO2
K3K3 180735Z AUTO 14011KT 10SM SCT110 20/19 A3007 RMK AO2
K3K3 180715Z AUTO 00000KT 10SM SCT110 20/18 A3010 RMK AO2
K3K3 180655Z AUTO 00000KT 10SM CLR 20/18 A3010 RMK AO2 P0001
K3K3 180635Z AUTO 34003KT 10SM SCT045 20/18 A3011 RMK AO2 P0001
K3K3 180615Z AUTO 34005KT 10SM -RA SCT046 SCT075 BKN085 20/18 A3012 RMK AO2 P0001
K3K3 180555Z AUTO 01012KT 10SM -RA SCT032 SCT075 OVC090 21/18 A3015 RMK AO2 P0001
K3K3 180535Z AUTO 29010G19KT 10SM RA SCT032 SCT075 BKN090 21/18 A3018 RMK AO2
K3K3 180515Z AUTO 30009KT 10SM SCT120 21/20 A3017 RMK AO2
K3K3 180455Z AUTO 22004KT 10SM -RA SCT048 SCT070 SCT090 21/19 A3014 RMK AO2
K3K3 180435Z AUTO 11008KT 10SM -RA SCT070 BKN100 BKN120 22/19 A3012 RMK AO2
K3K3 180415Z AUTO 07014KT 10SM SCT070 SCT080 OVC100 21/19 A3012 RMK AO2
K3K3 180355Z AUTO 06011KT 10SM -RA SCT070 BKN090 OVC110 20/18 A3011 RMK AO2 P0003
K3K3 180335Z AUTO 10006KT 10SM -RA SCT049 SCT075 BKN090 20/18 A3011 RMK AO2 P0001
K3K3 180315Z AUTO 07010KT 10SM -RA SCT060 SCT075 OVC095 20/18 A3009 RMK AO2 P0001
K3K3 180255Z AUTO 07008KT 10SM -RA SCT050 BKN070 OVC085 20/18 A3010 RMK AO2 P0006
K3K3 180235Z AUTO 24006G10KT 10SM RA BKN060 OVC075 20/17 A3011 RMK AO2 P0002
K3K3 180215Z AUTO 23016G21KT 10SM -RA OVC060 22/17 A3012 RMK AO2
K3K3 180155Z AUTO 26007G26KT 10SM BKN060 OVC080 23/16 A3009 RMK AO2
K3K3 180135Z AUTO 20026G35KT 4SM HZ BKN060 BKN070 24/16 A3009 RMK AO2
K3K3 180115Z AUTO 10010KT 10SM SCT070 30/17 A3006 RMK AO2